createdAt,value
2019-03-23T00:01:41.722Z,9.13
2019-03-23T00:04:36.736Z,8.85
2019-03-23T00:07:08.905Z,8.70
2019-03-23T00:10:08.399Z,9.15
2019-03-23T00:13:01.159Z,8.60
2019-03-23T00:16:02.440Z,8.63
2019-03-23T00:19:02.153Z,8.85
2019-03-23T00:21:40.373Z,8.55
2019-03-23T00:27:38.515Z,8.63
2019-03-23T00:34:54.280Z,7.92
2019-03-23T00:37:50.167Z,8.33
2019-03-23T00:46:32.422Z,7.80
2019-03-23T00:49:09.292Z,8.53
2019-03-23T00:51:54.139Z,8.03
2019-03-23T00:54:42.141Z,8.30
2019-03-23T01:00:01.521Z,7.72
2019-03-23T01:03:13.122Z,8.25
2019-03-23T01:05:53.399Z,7.92
2019-03-23T01:08:37.975Z,7.70
2019-03-23T01:11:22.332Z,8.03
2019-03-23T01:14:19.559Z,7.60
2019-03-23T01:16:57.914Z,7.80
2019-03-23T01:20:13.089Z,8.10
2019-03-23T01:26:12.664Z,7.75
2019-03-23T01:32:20.037Z,7.83
2019-03-23T01:34:55.206Z,7.70
2019-03-23T01:37:50.534Z,8.43
2019-03-23T01:41:03.737Z,7.60
2019-03-23T01:43:49.357Z,7.90
2019-03-23T01:50:28.606Z,7.35
2019-03-23T01:52:53.494Z,7.87
2019-03-23T01:58:16.428Z,7.87
2019-03-23T02:00:52.359Z,7.33
2019-03-23T02:03:44.167Z,7.97
2019-03-23T02:06:33.471Z,7.75
2019-03-23T02:09:15.025Z,7.90
2019-03-23T02:25:02.118Z,6.85
2019-03-23T02:42:59.413Z,6.97
2019-03-23T02:45:58.963Z,7.58
2019-03-23T02:48:58.433Z,7.12
2019-03-23T02:51:58.179Z,7.65
2019-03-23T02:54:32.453Z,7.10
2019-03-23T02:57:13.201Z,8.30
2019-03-23T03:03:49.835Z,7.28
2019-03-23T03:06:36.810Z,7.17
2019-03-23T03:09:32.513Z,7.58
2019-03-23T03:12:24.671Z,7.33
2019-03-23T03:15:31.534Z,6.90
2019-03-23T03:18:13.951Z,7.12
2019-03-23T03:21:16.156Z,6.75
2019-03-23T03:24:05.770Z,8.15
2019-03-23T03:27:11.499Z,6.22
2019-03-23T03:29:55.684Z,6.78
2019-03-23T03:33:09.230Z,6.17
2019-03-23T03:36:06.922Z,6.67
2019-03-23T03:43:09.447Z,6.20
2019-03-23T04:10:07.828Z,6.47
2019-03-23T04:13:59.861Z,6.28
2019-03-23T04:21:40.408Z,6.58
2019-03-23T04:33:12.123Z,6.12
2019-03-23T04:41:00.045Z,5.92
2019-03-23T04:52:13.581Z,6.22
2019-03-23T05:07:35.088Z,6.47
2019-03-23T05:18:03.698Z,6.10
2019-03-23T05:21:34.597Z,6.33
2019-03-23T05:28:44.859Z,6.55
2019-03-23T05:32:40.402Z,6.45
2019-03-23T05:36:23.938Z,6.35
2019-03-23T05:40:00.024Z,5.62
2019-03-23T05:46:46.689Z,6.47
2019-03-23T05:56:45.430Z,6.33
2019-03-23T06:03:06.168Z,6.00
2019-03-23T06:06:27.555Z,5.92
2019-03-23T06:10:36.980Z,6.60
2019-03-23T06:13:18.198Z,5.78
2019-03-23T06:23:56.985Z,5.67
2019-03-23T06:57:47.388Z,5.78
2019-03-23T07:00:18.991Z,6.30
2019-03-23T07:03:12.709Z,5.70
2019-03-23T07:05:49.496Z,6.33
2019-03-23T07:11:35.891Z,5.72
2019-03-23T07:14:13.153Z,6.05
2019-03-23T07:16:53.312Z,5.08
2019-03-23T07:19:34.518Z,5.42
2019-03-23T07:22:09.814Z,5.00
2019-03-23T07:24:45.391Z,5.35
2019-03-23T07:27:20.042Z,4.92
2019-03-23T07:29:53.620Z,5.00
2019-03-23T07:32:26.743Z,4.87
2019-03-23T07:35:01.300Z,5.08
2019-03-23T07:37:36.064Z,4.80
2019-03-23T07:40:11.874Z,4.97
2019-03-23T07:42:46.825Z,4.75
2019-03-23T07:45:19.057Z,4.28
2019-03-23T07:47:55.457Z,4.77
2019-03-23T07:50:32.160Z,4.80
2019-03-23T07:53:06.521Z,5.25
2019-03-23T07:55:42.095Z,4.60
2019-03-23T07:58:23.620Z,4.87
2019-03-23T08:01:00.125Z,5.37
2019-03-23T08:03:49.115Z,4.55
2019-03-23T08:06:18.797Z,4.75
2019-03-23T08:08:55.724Z,4.75
2019-03-23T08:11:28.050Z,6.00
2019-03-23T08:14:05.982Z,5.05
2019-03-23T08:16:42.778Z,4.83
2019-03-23T08:19:27.084Z,5.15
2019-03-23T08:22:28.227Z,4.87
2019-03-23T08:24:43.491Z,4.50
2019-03-23T08:27:19.185Z,4.22
2019-03-23T08:29:59.458Z,4.83
2019-03-23T08:32:34.465Z,8.60
2019-03-23T08:35:06.418Z,4.75
2019-03-23T08:37:40.323Z,4.75
2019-03-23T08:40:14.225Z,4.80
2019-03-23T08:42:47.586Z,4.30
2019-03-23T08:45:29.013Z,11.97
2019-03-23T08:48:03.864Z,9.15
2019-03-23T08:50:51.514Z,5.37
2019-03-23T08:53:27.038Z,11.97
2019-03-23T08:55:59.247Z,12.78
2019-03-23T08:58:30.799Z,8.63
2019-03-23T09:01:02.246Z,6.40
2019-03-23T09:03:35.647Z,13.00
2019-03-23T09:06:12.786Z,12.80
2019-03-23T09:08:45.978Z,7.75
2019-03-23T09:11:20.939Z,13.70
2019-03-23T09:13:54.253Z,15.00
2019-03-23T09:16:28.415Z,14.50
2019-03-23T09:19:00.016Z,13.30
2019-03-23T09:21:46.631Z,13.08
2019-03-23T09:24:21.458Z,13.35
2019-03-23T09:27:03.208Z,13.70
2019-03-23T09:29:38.640Z,13.25
2019-03-23T09:32:17.377Z,10.30
2019-03-23T09:34:53.383Z,9.63
2019-03-23T09:37:38.340Z,13.25
2019-03-23T09:40:11.031Z,13.40
2019-03-23T09:43:00.790Z,13.60
2019-03-23T09:45:41.245Z,13.48
2019-03-23T09:48:52.516Z,12.82
2019-03-23T09:51:39.945Z,8.53
2019-03-23T09:54:17.789Z,8.70
2019-03-23T09:56:59.459Z,14.43
2019-03-23T09:59:34.398Z,8.18
2019-03-23T10:02:19.014Z,11.93
2019-03-23T10:04:57.795Z,15.58
2019-03-23T10:07:34.916Z,16.75
2019-03-23T10:10:27.062Z,10.35
2019-03-23T10:13:02.312Z,10.70
2019-03-23T10:15:33.774Z,16.30
2019-03-23T10:18:05.016Z,9.53
2019-03-23T10:20:39.033Z,9.98
2019-03-23T10:23:14.991Z,16.42
2019-03-23T10:25:50.153Z,16.42
2019-03-23T10:28:28.461Z,17.57
2019-03-23T10:31:03.934Z,17.48
2019-03-23T10:33:36.748Z,17.48
2019-03-23T10:36:16.792Z,17.15
2019-03-23T10:38:56.952Z,14.03
2019-03-23T10:41:35.378Z,16.55
2019-03-23T10:44:08.859Z,16.77
2019-03-23T10:46:44.628Z,13.15
2019-03-23T10:49:20.071Z,18.42
2019-03-23T10:51:52.163Z,18.23
2019-03-23T10:54:25.483Z,15.53
2019-03-23T10:57:02.063Z,11.73
2019-03-23T10:59:41.481Z,11.22
2019-03-23T11:02:12.783Z,12.10
2019-03-23T11:04:46.020Z,12.65
2019-03-23T11:07:20.067Z,10.08
2019-03-23T11:09:53.794Z,16.45
2019-03-23T11:12:30.752Z,12.60
2019-03-23T11:15:19.228Z,16.87
2019-03-23T11:17:51.947Z,17.70
2019-03-23T11:20:46.323Z,17.87
2019-03-23T11:23:21.891Z,13.13
2019-03-23T11:26:01.715Z,17.73
2019-03-23T11:28:37.774Z,16.00
2019-03-23T11:31:13.602Z,14.53
2019-03-23T11:33:55.961Z,12.30
2019-03-23T11:36:32.599Z,14.25
2019-03-23T11:39:07.591Z,17.42
2019-03-23T11:41:56.371Z,16.42
2019-03-23T11:44:38.378Z,11.40
2019-03-23T11:47:15.708Z,16.10
2019-03-23T11:49:56.901Z,12.95
2019-03-23T11:52:42.079Z,9.80
2019-03-23T11:56:33.106Z,14.05
2019-03-23T11:58:16.045Z,14.75
2019-03-23T12:01:13.224Z,15.20
2019-03-23T12:04:01.208Z,14.10
2019-03-23T12:06:53.503Z,13.78
2019-03-23T12:09:28.567Z,15.35
2019-03-23T12:12:04.517Z,15.65
2019-03-23T12:14:43.463Z,15.00
2019-03-23T12:17:26.463Z,13.20
2019-03-23T12:20:11.854Z,11.55
2019-03-23T12:27:02.513Z,14.87
2019-03-23T12:29:39.694Z,13.98
2019-03-23T12:32:23.263Z,11.38
2019-03-23T12:35:33.637Z,10.80
2019-03-23T12:38:19.224Z,14.50
2019-03-23T12:41:22.318Z,12.35
2019-03-23T12:43:44.505Z,17.57
2019-03-23T12:46:47.893Z,10.63
2019-03-23T12:49:41.488Z,18.85
2019-03-23T12:52:42.589Z,11.38
2019-03-23T12:55:27.025Z,11.15
2019-03-23T12:58:30.987Z,10.43
2019-03-23T13:03:45.461Z,13.32
2019-03-23T13:06:28.446Z,16.57
2019-03-23T13:09:15.175Z,19.90
2019-03-23T13:11:49.399Z,18.87
2019-03-23T13:15:15.080Z,19.25
2019-03-23T13:17:21.740Z,17.12
2019-03-23T13:19:56.912Z,14.18
2019-03-23T13:22:28.420Z,13.38
2019-03-23T13:25:02.646Z,18.05
2019-03-23T13:27:36.559Z,19.42
2019-03-23T13:30:13.262Z,16.00
2019-03-23T13:32:49.454Z,16.37
2019-03-23T13:35:28.050Z,11.95
2019-03-23T13:38:00.158Z,18.82
2019-03-23T13:40:42.576Z,18.23
2019-03-23T13:43:19.495Z,17.93
2019-03-23T13:45:53.224Z,14.78
2019-03-23T13:48:34.323Z,12.47
2019-03-23T13:51:26.120Z,18.30
2019-03-23T13:54:46.600Z,18.35
2019-03-23T14:31:15.036Z,15.50
2019-03-23T14:35:28.550Z,19.85
2019-03-23T14:42:09.700Z,14.23
2019-03-23T14:44:50.757Z,19.60
2019-03-23T14:47:45.481Z,17.98
2019-03-23T14:50:33.214Z,19.47
2019-03-23T14:53:15.017Z,19.17
2019-03-23T14:55:51.106Z,18.80
2019-03-23T14:58:24.676Z,15.05
2019-03-23T15:01:02.202Z,18.80
2019-03-23T15:03:33.956Z,17.42
2019-03-23T15:06:06.501Z,17.90
2019-03-23T15:08:47.013Z,18.00
2019-03-23T15:11:46.520Z,18.75
2019-03-23T15:15:33.554Z,17.67
2019-03-23T15:26:38.471Z,14.20
2019-03-23T16:08:25.647Z,13.48
2019-03-23T16:11:18.148Z,13.30
2019-03-23T16:13:56.857Z,15.83
2019-03-23T16:16:52.710Z,16.67
2019-03-23T16:19:50.025Z,14.63
2019-03-23T16:22:44.384Z,14.43
2019-03-23T16:26:31.377Z,14.50
2019-03-23T16:29:59.483Z,15.90
2019-03-23T16:37:01.181Z,16.60
2019-03-23T16:39:51.812Z,16.30
2019-03-23T16:42:44.678Z,17.10
2019-03-23T16:45:18.062Z,15.72
2019-03-23T17:03:12.544Z,17.30
2019-03-23T17:06:45.817Z,17.32
2019-03-23T17:17:03.976Z,16.27
2019-03-23T17:19:44.239Z,16.82
2019-03-23T17:22:46.867Z,16.05
2019-03-23T17:26:02.345Z,16.00
2019-03-23T17:28:55.021Z,17.90
2019-03-23T17:35:45.132Z,16.55
2019-03-23T17:38:47.568Z,18.00
2019-03-23T17:41:26.259Z,17.40
2019-03-23T17:44:25.566Z,16.23
2019-03-23T17:54:24.337Z,17.82
2019-03-23T18:01:28.802Z,17.90
2019-03-23T18:04:38.607Z,17.02
2019-03-23T18:09:33.676Z,18.55
2019-03-23T18:12:10.982Z,18.75
2019-03-23T18:14:59.786Z,17.60
2019-03-23T18:17:40.911Z,18.75
2019-03-23T18:23:48.047Z,17.60
2019-03-23T18:27:07.166Z,19.27
2019-03-23T18:29:52.557Z,18.42
2019-03-23T18:32:37.742Z,19.60
2019-03-23T18:35:19.250Z,20.85
2019-03-23T18:38:13.459Z,19.75
2019-03-23T18:40:58.571Z,19.73
2019-03-23T18:47:31.094Z,20.17
2019-03-23T18:58:06.543Z,29.00
2019-03-23T19:01:30.655Z,35.52
2019-03-23T19:05:09.554Z,24.92
2019-03-23T19:08:36.341Z,29.12
2019-03-23T19:26:31.170Z,39.50
2019-03-23T19:29:01.929Z,37.98
2019-03-23T19:31:33.033Z,36.75
2019-03-23T19:34:03.889Z,36.15
2019-03-23T19:36:35.343Z,33.18
2019-03-23T19:39:09.943Z,33.92
2019-03-23T19:41:41.065Z,31.12
2019-03-23T19:44:12.065Z,34.05
2019-03-23T19:46:43.497Z,33.33
2019-03-23T19:49:14.684Z,31.50
2019-03-23T19:51:45.814Z,29.37
2019-03-23T19:54:18.372Z,28.27
2019-03-23T19:56:49.068Z,31.83
2019-03-23T19:59:20.704Z,29.40
2019-03-23T20:01:52.841Z,31.10
2019-03-23T20:04:23.946Z,30.43
2019-03-23T20:06:54.878Z,29.80
2019-03-23T20:09:25.655Z,28.77
2019-03-23T20:11:57.867Z,27.95
2019-03-23T20:14:28.945Z,31.30
2019-03-23T20:17:00.521Z,29.63
2019-03-23T20:19:32.976Z,31.65
2019-03-23T20:22:06.746Z,30.87
2019-03-23T20:24:43.325Z,31.62
2019-03-23T20:27:14.538Z,31.77
2019-03-23T20:29:46.613Z,31.15
2019-03-23T20:32:17.553Z,31.07
2019-03-23T20:34:48.739Z,30.95
2019-03-23T20:37:20.202Z,28.17
2019-03-23T20:39:52.450Z,28.50
2019-03-23T20:42:23.224Z,28.27
2019-03-23T20:44:55.300Z,27.85
2019-03-23T20:47:26.461Z,29.60
2019-03-23T20:49:57.898Z,30.02
2019-03-23T20:52:29.256Z,25.70
2019-03-23T20:55:00.160Z,26.00
2019-03-23T20:57:37.473Z,26.02
2019-03-23T21:00:05.512Z,26.60
2019-03-23T21:02:37.027Z,24.77
2019-03-23T21:05:08.087Z,24.23
2019-03-23T21:07:38.894Z,24.90
2019-03-23T21:10:09.763Z,23.83
2019-03-23T21:12:41.376Z,23.57
2019-03-23T21:15:12.344Z,23.57
2019-03-23T21:17:51.056Z,22.75
2019-03-23T21:20:17.010Z,24.18
2019-03-23T21:22:47.836Z,22.93
2019-03-23T21:25:18.826Z,21.62
2019-03-23T21:27:49.973Z,22.17
2019-03-23T21:30:22.187Z,22.60
2019-03-23T21:32:53.122Z,22.13
2019-03-23T21:35:26.343Z,21.90
2019-03-23T21:37:57.838Z,23.25
2019-03-23T21:40:29.109Z,23.90
2019-03-23T21:43:04.638Z,22.50
2019-03-23T21:45:35.794Z,23.15
2019-03-23T21:48:07.766Z,21.93
2019-03-23T21:50:47.096Z,40.10
2019-03-23T21:53:11.596Z,51.55
2019-03-23T21:55:42.751Z,61.68
2019-03-23T21:58:13.857Z,44.33
2019-03-23T22:00:45.631Z,42.58
2019-03-23T22:03:16.746Z,24.37
2019-03-23T22:05:47.893Z,22.70
2019-03-23T22:08:18.589Z,23.62
2019-03-23T22:10:50.963Z,27.45
2019-03-23T22:13:22.251Z,23.30
2019-03-23T22:15:53.358Z,21.82
2019-03-23T22:18:24.083Z,22.00
2019-03-23T22:20:55.187Z,21.73
2019-03-23T22:23:25.955Z,23.05
2019-03-23T22:25:57.438Z,22.17
2019-03-23T22:28:28.243Z,20.17
2019-03-23T22:30:59.764Z,19.60
2019-03-23T22:33:34.323Z,19.60
2019-03-23T22:36:05.612Z,18.87
2019-03-23T22:38:36.362Z,19.98
2019-03-23T22:41:07.089Z,18.90
2019-03-23T22:43:37.902Z,19.40
2019-03-23T22:46:09.496Z,19.80
2019-03-23T22:48:41.009Z,19.37
2019-03-23T22:51:12.475Z,19.12
2019-03-23T22:53:43.973Z,19.90
2019-03-23T22:56:14.714Z,20.77
2019-03-23T22:58:45.711Z,21.35
2019-03-23T23:01:16.632Z,19.52
2019-03-23T23:03:47.770Z,20.52
2019-03-23T23:06:18.930Z,20.48
2019-03-23T23:08:50.110Z,20.80
2019-03-23T23:11:21.911Z,20.02
2019-03-23T23:13:53.723Z,21.33
2019-03-23T23:16:24.908Z,20.37
2019-03-23T23:18:56.102Z,18.02
2019-03-23T23:21:27.619Z,17.80
2019-03-23T23:23:58.925Z,18.98
2019-03-23T23:26:31.258Z,19.27
2019-03-23T23:29:02.058Z,19.23
2019-03-23T23:31:33.322Z,19.75
2019-03-23T23:34:04.338Z,19.30
2019-03-23T23:36:36.658Z,19.20
2019-03-23T23:39:09.004Z,20.07
2019-03-23T23:41:39.788Z,20.00
2019-03-23T23:44:11.627Z,19.42
2019-03-23T23:46:42.820Z,21.15
2019-03-23T23:49:14.769Z,19.65
2019-03-23T23:51:50.175Z,18.92
2019-03-23T23:54:18.417Z,18.37
2019-03-23T23:56:49.556Z,17.73
2019-03-23T23:59:20.287Z,18.57
